sensor_id;sensor_type;location;lat;lon;timestamp;temperature;humidity
17599;DHT22;8918;52.092;5.232;2024-01-07T00:00:34;1.50;99.90
17599;DHT22;8918;52.092;5.232;2024-01-07T00:03:00;1.50;99.90
17599;DHT22;8918;52.092;5.232;2024-01-07T00:05:26;1.50;99.90
17599;DHT22;8918;52.092;5.232;2024-01-07T00:07:51;1.50;99.90
17599;DHT22;8918;52.092;5.232;2024-01-07T00:10:17;1.50;99.90
17599;DHT22;8918;52.092;5.232;2024-01-07T00:12:43;1.50;99.90
17599;DHT22;8918;52.092;5.232;2024-01-07T00:15:09;1.50;99.90
17599;DHT22;8918;52.092;5.232;2024-01-07T00:17:35;1.50;99.90
17599;DHT22;8918;52.092;5.232;2024-01-07T00:20:00;1.40;99.90
17599;DHT22;8918;52.092;5.232;2024-01-07T00:22:26;1.40;99.90
17599;DHT22;8918;52.092;5.232;2024-01-07T00:24:51;1.40;99.90
17599;DHT22;8918;52.092;5.232;2024-01-07T00:27:17;1.40;99.90
17599;DHT22;8918;52.092;5.232;2024-01-07T00:29:44;1.40;99.90
17599;DHT22;8918;52.092;5.232;2024-01-07T00:32:09;1.40;99.90
17599;DHT22;8918;52.092;5.232;2024-01-07T00:34:35;1.40;99.90
17599;DHT22;8918;52.092;5.232;2024-01-07T00:37:00;1.40;99.90
17599;DHT22;8918;52.092;5.232;2024-01-07T00:39:26;1.40;99.90
17599;DHT22;8918;52.092;5.232;2024-01-07T00:41:52;1.40;99.90
17599;DHT22;8918;52.092;5.232;2024-01-07T00:44:17;1.40;99.90
17599;DHT22;8918;52.092;5.232;2024-01-07T00:46:43;1.30;99.90
17599;DHT22;8918;52.092;5.232;2024-01-07T00:49:08;1.40;99.90
17599;DHT22;8918;52.092;5.232;2024-01-07T00:51:34;1.30;99.90
17599;DHT22;8918;52.092;5.232;2024-01-07T00:53:59;1.30;99.90
17599;DHT22;8918;52.092;5.232;2024-01-07T00:56:28;1.30;99.90
17599;DHT22;8918;52.092;5.232;2024-01-07T00:58:53;1.30;99.90
17599;DHT22;8918;52.092;5.232;2024-01-07T01:01:19;1.30;99.90
17599;DHT22;8918;52.092;5.232;2024-01-07T01:03:45;1.30;99.90
17599;DHT22;8918;52.092;5.232;2024-01-07T01:06:11;1.30;99.90
17599;DHT22;8918;52.092;5.232;2024-01-07T01:08:37;1.30;99.90
17599;DHT22;8918;52.092;5.232;2024-01-07T01:11:02;1.20;99.90
17599;DHT22;8918;52.092;5.232;2024-01-07T01:13:28;1.20;99.90
17599;DHT22;8918;52.092;5.232;2024-01-07T01:15:53;1.20;99.90
17599;DHT22;8918;52.092;5.232;2024-01-07T01:18:20;1.20;99.90
17599;DHT22;8918;52.092;5.232;2024-01-07T01:20:46;1.20;99.90
17599;DHT22;8918;52.092;5.232;2024-01-07T01:23:12;1.20;99.90
17599;DHT22;8918;52.092;5.232;2024-01-07T01:25:37;1.20;99.90
17599;DHT22;8918;52.092;5.232;2024-01-07T01:28:05;1.20;99.90
17599;DHT22;8918;52.092;5.232;2024-01-07T01:30:30;1.30;99.90
17599;DHT22;8918;52.092;5.232;2024-01-07T01:32:57;1.30;99.90
17599;DHT22;8918;52.092;5.232;2024-01-07T01:35:22;1.20;99.90
17599;DHT22;8918;52.092;5.232;2024-01-07T01:37:48;1.20;99.90
17599;DHT22;8918;52.092;5.232;2024-01-07T01:40:14;1.20;99.90
17599;DHT22;8918;52.092;5.232;2024-01-07T01:42:44;1.20;99.90
17599;DHT22;8918;52.092;5.232;2024-01-07T01:45:10;1.20;99.90
17599;DHT22;8918;52.092;5.232;2024-01-07T01:47:36;1.30;99.90
17599;DHT22;8918;52.092;5.232;2024-01-07T01:50:01;1.20;99.90
17599;DHT22;8918;52.092;5.232;2024-01-07T01:52:27;1.20;99.90
17599;DHT22;8918;52.092;5.232;2024-01-07T01:54:53;1.20;99.90
17599;DHT22;8918;52.092;5.232;2024-01-07T01:57:22;1.20;99.90
17599;DHT22;8918;52.092;5.232;2024-01-07T01:59:51;1.20;99.90
17599;DHT22;8918;52.092;5.232;2024-01-07T02:02:18;1.20;99.90
17599;DHT22;8918;52.092;5.232;2024-01-07T02:04:44;1.20;99.90
17599;DHT22;8918;52.092;5.232;2024-01-07T02:07:10;1.20;99.90
17599;DHT22;8918;52.092;5.232;2024-01-07T02:09:36;1.20;99.90
17599;DHT22;8918;52.092;5.232;2024-01-07T02:12:05;1.20;99.90
17599;DHT22;8918;52.092;5.232;2024-01-07T02:14:31;1.20;99.90
17599;DHT22;8918;52.092;5.232;2024-01-07T02:16:57;1.20;99.90
17599;DHT22;8918;52.092;5.232;2024-01-07T02:19:23;1.20;99.90
17599;DHT22;8918;52.092;5.232;2024-01-07T02:21:51;1.20;99.90
17599;DHT22;8918;52.092;5.232;2024-01-07T02:24:17;1.20;99.90
17599;DHT22;8918;52.092;5.232;2024-01-07T02:26:43;1.20;99.90
17599;DHT22;8918;52.092;5.232;2024-01-07T02:29:09;1.10;99.90
17599;DHT22;8918;52.092;5.232;2024-01-07T02:31:34;1.10;99.90
17599;DHT22;8918;52.092;5.232;2024-01-07T02:34:00;1.10;99.90
17599;DHT22;8918;52.092;5.232;2024-01-07T02:36:25;1.10;99.90
17599;DHT22;8918;52.092;5.232;2024-01-07T02:38:51;1.10;99.90
17599;DHT22;8918;52.092;5.232;2024-01-07T02:41:16;1.10;99.90
17599;DHT22;8918;52.092;5.232;2024-01-07T02:43:42;1.10;99.90
17599;DHT22;8918;52.092;5.232;2024-01-07T02:46:08;1.10;99.90
17599;DHT22;8918;52.092;5.232;2024-01-07T02:48:33;1.10;99.90
17599;DHT22;8918;52.092;5.232;2024-01-07T02:51:00;1.20;99.90
17599;DHT22;8918;52.092;5.232;2024-01-07T02:53:25;1.20;99.90
17599;DHT22;8918;52.092;5.232;2024-01-07T02:55:51;1.20;99.90
17599;DHT22;8918;52.092;5.232;2024-01-07T02:58:16;1.20;99.90
17599;DHT22;8918;52.092;5.232;2024-01-07T03:00:42;1.20;99.90
17599;DHT22;8918;52.092;5.232;2024-01-07T03:03:08;1.10;99.90
17599;DHT22;8918;52.092;5.232;2024-01-07T03:05:33;1.10;99.90
17599;DHT22;8918;52.092;5.232;2024-01-07T03:07:59;1.10;99.90
17599;DHT22;8918;52.092;5.232;2024-01-07T03:10:25;1.10;99.90
17599;DHT22;8918;52.092;5.232;2024-01-07T03:12:51;1.20;99.90
17599;DHT22;8918;52.092;5.232;2024-01-07T03:15:16;1.20;99.90
17599;DHT22;8918;52.092;5.232;2024-01-07T03:17:42;1.20;99.90
17599;DHT22;8918;52.092;5.232;2024-01-07T03:20:09;1.20;99.90
17599;DHT22;8918;52.092;5.232;2024-01-07T03:22:35;1.20;99.90
17599;DHT22;8918;52.092;5.232;2024-01-07T03:25:01;1.20;99.90
17599;DHT22;8918;52.092;5.232;2024-01-07T03:27:26;1.20;99.90
17599;DHT22;8918;52.092;5.232;2024-01-07T03:29:52;1.30;99.90
17599;DHT22;8918;52.092;5.232;2024-01-07T03:32:19;1.30;99.90
17599;DHT22;8918;52.092;5.232;2024-01-07T03:34:44;1.20;99.90
17599;DHT22;8918;52.092;5.232;2024-01-07T03:37:10;1.20;99.90
17599;DHT22;8918;52.092;5.232;2024-01-07T03:39:35;1.20;99.90
17599;DHT22;8918;52.092;5.232;2024-01-07T03:42:01;1.20;99.90
17599;DHT22;8918;52.092;5.232;2024-01-07T03:44:27;1.20;99.90
17599;DHT22;8918;52.092;5.232;2024-01-07T03:46:52;1.20;99.90
17599;DHT22;8918;52.092;5.232;2024-01-07T03:49:18;1.20;99.90
17599;DHT22;8918;52.092;5.232;2024-01-07T03:51:43;1.20;99.90
17599;DHT22;8918;52.092;5.232;2024-01-07T03:54:09;1.20;99.90
17599;DHT22;8918;52.092;5.232;2024-01-07T03:56:35;1.20;99.90
17599;DHT22;8918;52.092;5.232;2024-01-07T03:59:00;1.20;99.90
17599;DHT22;8918;52.092;5.232;2024-01-07T04:01:26;1.20;99.90
17599;DHT22;8918;52.092;5.232;2024-01-07T04:03:51;1.20;99.90
17599;DHT22;8918;52.092;5.232;2024-01-07T04:06:17;1.20;99.90
17599;DHT22;8918;52.092;5.232;2024-01-07T04:08:43;1.20;99.90
17599;DHT22;8918;52.092;5.232;2024-01-07T04:11:08;1.20;99.90
17599;DHT22;8918;52.092;5.232;2024-01-07T04:13:34;1.20;99.90
17599;DHT22;8918;52.092;5.232;2024-01-07T04:15:59;1.20;99.90
17599;DHT22;8918;52.092;5.232;2024-01-07T04:18:25;1.20;99.90
17599;DHT22;8918;52.092;5.232;2024-01-07T04:20:50;1.20;99.90
17599;DHT22;8918;52.092;5.232;2024-01-07T04:23:16;1.20;99.90
17599;DHT22;8918;52.092;5.232;2024-01-07T04:25:41;1.20;99.90
17599;DHT22;8918;52.092;5.232;2024-01-07T04:28:09;1.20;99.90
17599;DHT22;8918;52.092;5.232;2024-01-07T04:30:35;1.20;99.90
17599;DHT22;8918;52.092;5.232;2024-01-07T04:33:01;1.20;99.90
17599;DHT22;8918;52.092;5.232;2024-01-07T04:35:26;1.20;99.90
17599;DHT22;8918;52.092;5.232;2024-01-07T04:37:52;1.20;99.90
17599;DHT22;8918;52.092;5.232;2024-01-07T04:40:17;1.20;99.90
17599;DHT22;8918;52.092;5.232;2024-01-07T04:42:43;1.10;99.90
17599;DHT22;8918;52.092;5.232;2024-01-07T04:45:09;1.10;99.90
17599;DHT22;8918;52.092;5.232;2024-01-07T04:47:34;1.10;99.90
17599;DHT22;8918;52.092;5.232;2024-01-07T04:50:00;1.10;99.90
17599;DHT22;8918;52.092;5.232;2024-01-07T04:52:26;1.10;99.90
17599;DHT22;8918;52.092;5.232;2024-01-07T04:54:55;1.10;99.90
17599;DHT22;8918;52.092;5.232;2024-01-07T04:57:22;1.10;99.90
17599;DHT22;8918;52.092;5.232;2024-01-07T04:59:48;1.10;99.90
17599;DHT22;8918;52.092;5.232;2024-01-07T05:02:14;1.10;99.90
17599;DHT22;8918;52.092;5.232;2024-01-07T05:04:40;1.10;99.90
17599;DHT22;8918;52.092;5.232;2024-01-07T05:07:06;1.10;99.90
17599;DHT22;8918;52.092;5.232;2024-01-07T05:09:34;1.10;99.90
17599;DHT22;8918;52.092;5.232;2024-01-07T05:12:00;1.10;99.90
17599;DHT22;8918;52.092;5.232;2024-01-07T05:14:26;1.10;99.90
17599;DHT22;8918;52.092;5.232;2024-01-07T05:16:53;1.10;99.90
17599;DHT22;8918;52.092;5.232;2024-01-07T05:19:19;1.10;99.90
17599;DHT22;8918;52.092;5.232;2024-01-07T05:21:45;1.10;99.90
17599;DHT22;8918;52.092;5.232;2024-01-07T05:24:10;1.10;99.90
17599;DHT22;8918;52.092;5.232;2024-01-07T05:26:41;1.10;99.90
17599;DHT22;8918;52.092;5.232;2024-01-07T05:29:07;1.00;99.90
17599;DHT22;8918;52.092;5.232;2024-01-07T05:31:33;1.10;99.90
17599;DHT22;8918;52.092;5.232;2024-01-07T05:33:58;1.10;99.90
17599;DHT22;8918;52.092;5.232;2024-01-07T05:36:24;1.10;99.90
17599;DHT22;8918;52.092;5.232;2024-01-07T05:38:49;1.10;99.90
17599;DHT22;8918;52.092;5.232;2024-01-07T05:41:15;1.10;99.90
17599;DHT22;8918;52.092;5.232;2024-01-07T05:43:41;1.10;99.90
17599;DHT22;8918;52.092;5.232;2024-01-07T05:46:06;1.10;99.90
17599;DHT22;8918;52.092;5.232;2024-01-07T05:48:41;1.10;99.90
17599;DHT22;8918;52.092;5.232;2024-01-07T05:51:08;1.10;99.90
17599;DHT22;8918;52.092;5.232;2024-01-07T05:53:34;1.00;99.90
17599;DHT22;8918;52.092;5.232;2024-01-07T05:56:00;1.00;99.90
17599;DHT22;8918;52.092;5.232;2024-01-07T05:58:25;1.00;99.90
17599;DHT22;8918;52.092;5.232;2024-01-07T06:00:51;1.00;99.90
17599;DHT22;8918;52.092;5.232;2024-01-07T06:03:17;1.00;99.90
17599;DHT22;8918;52.092;5.232;2024-01-07T06:05:42;1.00;99.90
17599;DHT22;8918;52.092;5.232;2024-01-07T06:08:08;1.00;99.90
17599;DHT22;8918;52.092;5.232;2024-01-07T06:10:34;1.00;99.90
17599;DHT22;8918;52.092;5.232;2024-01-07T06:12:59;1.00;99.90
17599;DHT22;8918;52.092;5.232;2024-01-07T06:15:25;1.00;99.90
17599;DHT22;8918;52.092;5.232;2024-01-07T06:17:50;1.00;99.90
17599;DHT22;8918;52.092;5.232;2024-01-07T06:20:17;1.10;99.90
17599;DHT22;8918;52.092;5.232;2024-01-07T06:22:42;1.10;99.90
17599;DHT22;8918;52.092;5.232;2024-01-07T06:25:08;1.10;99.90
17599;DHT22;8918;52.092;5.232;2024-01-07T06:27:34;1.10;99.90
17599;DHT22;8918;52.092;5.232;2024-01-07T06:30:00;1.10;99.90
17599;DHT22;8918;52.092;5.232;2024-01-07T06:32:25;1.10;99.90
17599;DHT22;8918;52.092;5.232;2024-01-07T06:34:51;1.10;99.90
17599;DHT22;8918;52.092;5.232;2024-01-07T06:37:17;1.00;99.90
17599;DHT22;8918;52.092;5.232;2024-01-07T06:39:43;1.00;99.90
17599;DHT22;8918;52.092;5.232;2024-01-07T06:42:08;1.00;99.90
17599;DHT22;8918;52.092;5.232;2024-01-07T06:44:34;1.00;99.90
17599;DHT22;8918;52.092;5.232;2024-01-07T06:46:59;0.90;99.90
17599;DHT22;8918;52.092;5.232;2024-01-07T06:49:25;0.90;99.90
17599;DHT22;8918;52.092;5.232;2024-01-07T06:51:50;0.90;99.90
17599;DHT22;8918;52.092;5.232;2024-01-07T06:54:16;0.90;99.90
17599;DHT22;8918;52.092;5.232;2024-01-07T06:56:41;1.00;99.90
17599;DHT22;8918;52.092;5.232;2024-01-07T06:59:08;1.00;99.90
17599;DHT22;8918;52.092;5.232;2024-01-07T07:01:33;1.00;99.90
17599;DHT22;8918;52.092;5.232;2024-01-07T07:03:59;1.00;99.90
17599;DHT22;8918;52.092;5.232;2024-01-07T07:06:26;0.90;99.90
17599;DHT22;8918;52.092;5.232;2024-01-07T07:08:51;0.90;99.90
17599;DHT22;8918;52.092;5.232;2024-01-07T07:11:17;0.90;99.90
17599;DHT22;8918;52.092;5.232;2024-01-07T07:13:42;0.90;99.90
17599;DHT22;8918;52.092;5.232;2024-01-07T07:16:08;0.90;99.90
17599;DHT22;8918;52.092;5.232;2024-01-07T07:18:33;1.00;99.90
17599;DHT22;8918;52.092;5.232;2024-01-07T07:20:59;1.00;99.90
17599;DHT22;8918;52.092;5.232;2024-01-07T07:23:24;0.90;99.90
17599;DHT22;8918;52.092;5.232;2024-01-07T07:25:51;0.90;99.90
17599;DHT22;8918;52.092;5.232;2024-01-07T07:28:16;0.90;99.90
17599;DHT22;8918;52.092;5.232;2024-01-07T07:30:43;0.90;99.90
17599;DHT22;8918;52.092;5.232;2024-01-07T07:33:08;0.90;99.90
17599;DHT22;8918;52.092;5.232;2024-01-07T07:35:34;0.90;99.90
17599;DHT22;8918;52.092;5.232;2024-01-07T07:37:59;0.80;99.90
17599;DHT22;8918;52.092;5.232;2024-01-07T07:40:25;0.80;99.90
17599;DHT22;8918;52.092;5.232;2024-01-07T07:42:51;0.80;99.90
17599;DHT22;8918;52.092;5.232;2024-01-07T07:45:16;0.80;99.90
17599;DHT22;8918;52.092;5.232;2024-01-07T07:47:44;0.80;99.90
17599;DHT22;8918;52.092;5.232;2024-01-07T07:50:10;0.80;99.90
17599;DHT22;8918;52.092;5.232;2024-01-07T07:52:36;0.80;99.90
17599;DHT22;8918;52.092;5.232;2024-01-07T07:55:02;0.80;99.90
17599;DHT22;8918;52.092;5.232;2024-01-07T07:57:28;0.80;99.90
17599;DHT22;8918;52.092;5.232;2024-01-07T07:59:54;0.80;99.90
17599;DHT22;8918;52.092;5.232;2024-01-07T08:02:20;0.80;99.90
17599;DHT22;8918;52.092;5.232;2024-01-07T08:04:46;0.80;99.90
17599;DHT22;8918;52.092;5.232;2024-01-07T08:07:12;0.80;99.90
17599;DHT22;8918;52.092;5.232;2024-01-07T08:09:37;0.80;99.90
17599;DHT22;8918;52.092;5.232;2024-01-07T08:12:04;0.70;99.90
17599;DHT22;8918;52.092;5.232;2024-01-07T08:14:30;0.80;99.90
17599;DHT22;8918;52.092;5.232;2024-01-07T08:16:56;0.80;99.90
17599;DHT22;8918;52.092;5.232;2024-01-07T08:19:21;0.70;99.90
17599;DHT22;8918;52.092;5.232;2024-01-07T08:21:47;0.70;99.90
17599;DHT22;8918;52.092;5.232;2024-01-07T08:24:13;0.80;99.90
17599;DHT22;8918;52.092;5.232;2024-01-07T08:26:38;0.80;99.90
17599;DHT22;8918;52.092;5.232;2024-01-07T08:29:04;0.70;99.90
17599;DHT22;8918;52.092;5.232;2024-01-07T08:31:30;0.80;99.90
17599;DHT22;8918;52.092;5.232;2024-01-07T08:33:56;0.80;99.90
17599;DHT22;8918;52.092;5.232;2024-01-07T08:36:22;0.80;99.90
17599;DHT22;8918;52.092;5.232;2024-01-07T08:38:48;0.70;99.90
17599;DHT22;8918;52.092;5.232;2024-01-07T08:41:16;0.70;99.90
17599;DHT22;8918;52.092;5.232;2024-01-07T08:43:42;0.70;99.90
17599;DHT22;8918;52.092;5.232;2024-01-07T08:46:08;0.80;99.90
17599;DHT22;8918;52.092;5.232;2024-01-07T08:48:33;0.80;99.90
17599;DHT22;8918;52.092;5.232;2024-01-07T08:50:59;0.80;99.90
17599;DHT22;8918;52.092;5.232;2024-01-07T08:53:24;0.80;99.90
17599;DHT22;8918;52.092;5.232;2024-01-07T08:55:51;0.80;99.90
17599;DHT22;8918;52.092;5.232;2024-01-07T08:58:17;0.80;99.90
17599;DHT22;8918;52.092;5.232;2024-01-07T09:00:43;0.80;99.90
17599;DHT22;8918;52.092;5.232;2024-01-07T09:03:09;0.80;99.90
17599;DHT22;8918;52.092;5.232;2024-01-07T09:05:35;0.80;99.90
17599;DHT22;8918;52.092;5.232;2024-01-07T09:08:01;0.80;99.90
17599;DHT22;8918;52.092;5.232;2024-01-07T09:10:27;0.80;99.90
17599;DHT22;8918;52.092;5.232;2024-01-07T09:12:53;0.80;99.90
17599;DHT22;8918;52.092;5.232;2024-01-07T09:15:19;0.80;99.90
17599;DHT22;8918;52.092;5.232;2024-01-07T09:17:46;0.80;99.90
17599;DHT22;8918;52.092;5.232;2024-01-07T09:20:12;0.80;99.90
17599;DHT22;8918;52.092;5.232;2024-01-07T09:22:38;0.70;99.90
17599;DHT22;8918;52.092;5.232;2024-01-07T09:25:05;0.80;99.90
17599;DHT22;8918;52.092;5.232;2024-01-07T09:27:32;0.80;99.90
17599;DHT22;8918;52.092;5.232;2024-01-07T09:29:58;0.80;99.90
17599;DHT22;8918;52.092;5.232;2024-01-07T09:32:23;0.80;99.90
17599;DHT22;8918;52.092;5.232;2024-01-07T09:34:49;0.80;99.90
17599;DHT22;8918;52.092;5.232;2024-01-07T09:37:16;0.80;99.90
17599;DHT22;8918;52.092;5.232;2024-01-07T09:39:41;0.90;99.90
17599;DHT22;8918;52.092;5.232;2024-01-07T09:42:13;0.90;99.90
17599;DHT22;8918;52.092;5.232;2024-01-07T09:44:40;0.90;99.90
17599;DHT22;8918;52.092;5.232;2024-01-07T09:47:09;0.90;99.90
17599;DHT22;8918;52.092;5.232;2024-01-07T09:49:35;0.90;99.90
17599;DHT22;8918;52.092;5.232;2024-01-07T09:52:03;0.90;99.90
17599;DHT22;8918;52.092;5.232;2024-01-07T09:54:30;0.90;99.90
17599;DHT22;8918;52.092;5.232;2024-01-07T09:57:00;0.90;99.90
17599;DHT22;8918;52.092;5.232;2024-01-07T09:59:28;0.80;99.90
17599;DHT22;8918;52.092;5.232;2024-01-07T10:01:54;0.90;99.90
17599;DHT22;8918;52.092;5.232;2024-01-07T10:04:21;0.90;99.90
17599;DHT22;8918;52.092;5.232;2024-01-07T10:06:46;0.90;99.90
17599;DHT22;8918;52.092;5.232;2024-01-07T10:09:15;0.90;99.90
17599;DHT22;8918;52.092;5.232;2024-01-07T10:11:41;0.90;99.90
17599;DHT22;8918;52.092;5.232;2024-01-07T10:14:06;0.90;99.90
17599;DHT22;8918;52.092;5.232;2024-01-07T10:16:32;0.90;99.90
17599;DHT22;8918;52.092;5.232;2024-01-07T10:18:58;0.90;99.90
17599;DHT22;8918;52.092;5.232;2024-01-07T10:21:24;0.90;99.90
17599;DHT22;8918;52.092;5.232;2024-01-07T10:23:50;1.00;99.90
17599;DHT22;8918;52.092;5.232;2024-01-07T10:26:16;1.00;99.90
17599;DHT22;8918;52.092;5.232;2024-01-07T10:28:42;1.10;99.90
17599;DHT22;8918;52.092;5.232;2024-01-07T10:31:09;1.10;99.90
17599;DHT22;8918;52.092;5.232;2024-01-07T10:33:34;1.10;99.90
17599;DHT22;8918;52.092;5.232;2024-01-07T10:36:05;1.10;99.90
17599;DHT22;8918;52.092;5.232;2024-01-07T10:38:32;1.10;99.90
17599;DHT22;8918;52.092;5.232;2024-01-07T10:41:01;1.20;99.90
17599;DHT22;8918;52.092;5.232;2024-01-07T10:43:30;1.20;99.90
17599;DHT22;8918;52.092;5.232;2024-01-07T10:46:00;1.20;99.90
17599;DHT22;8918;52.092;5.232;2024-01-07T10:48:30;1.30;99.90
17599;DHT22;8918;52.092;5.232;2024-01-07T10:51:00;1.90;99.90
17599;DHT22;8918;52.092;5.232;2024-01-07T10:53:27;2.60;99.90
17599;DHT22;8918;52.092;5.232;2024-01-07T10:56:13;3.10;99.90
17599;DHT22;8918;52.092;5.232;2024-01-07T10:58:41;3.70;99.90
17599;DHT22;8918;52.092;5.232;2024-01-07T11:01:08;4.00;99.90
17599;DHT22;8918;52.092;5.232;2024-01-07T11:07:09;4.10;99.90
17599;DHT22;8918;52.092;5.232;2024-01-07T11:09:43;4.30;99.90
17599;DHT22;8918;52.092;5.232;2024-01-07T11:12:12;4.40;99.90
17599;DHT22;8918;52.092;5.232;2024-01-07T11:14:42;4.60;99.90
17599;DHT22;8918;52.092;5.232;2024-01-07T11:17:11;4.90;99.90
17599;DHT22;8918;52.092;5.232;2024-01-07T11:19:38;5.00;99.90
17599;DHT22;8918;52.092;5.232;2024-01-07T11:22:29;5.20;99.90
17599;DHT22;8918;52.092;5.232;2024-01-07T11:25:00;5.60;99.90
17599;DHT22;8918;52.092;5.232;2024-01-07T11:27:29;5.50;99.90
17599;DHT22;8918;52.092;5.232;2024-01-07T11:30:02;5.00;99.90
17599;DHT22;8918;52.092;5.232;2024-01-07T11:32:30;4.90;99.90
17599;DHT22;8918;52.092;5.232;2024-01-07T11:34:56;4.70;99.90
17599;DHT22;8918;52.092;5.232;2024-01-07T11:37:22;4.50;99.90
17599;DHT22;8918;52.092;5.232;2024-01-07T11:39:51;4.50;99.90
17599;DHT22;8918;52.092;5.232;2024-01-07T11:42:17;4.40;99.90
17599;DHT22;8918;52.092;5.232;2024-01-07T11:44:51;4.30;99.90
17599;DHT22;8918;52.092;5.232;2024-01-07T11:47:17;4.40;99.90
17599;DHT22;8918;52.092;5.232;2024-01-07T11:49:44;4.10;99.90
17599;DHT22;8918;52.092;5.232;2024-01-07T11:52:10;4.10;99.90
17599;DHT22;8918;52.092;5.232;2024-01-07T11:54:37;4.20;99.90
17599;DHT22;8918;52.092;5.232;2024-01-07T11:57:04;4.30;99.90
17599;DHT22;8918;52.092;5.232;2024-01-07T11:59:30;4.70;99.90
17599;DHT22;8918;52.092;5.232;2024-01-07T12:01:55;5.30;99.90
17599;DHT22;8918;52.092;5.232;2024-01-07T12:04:21;6.00;99.90
17599;DHT22;8918;52.092;5.232;2024-01-07T12:06:50;6.20;99.90
17599;DHT22;8918;52.092;5.232;2024-01-07T12:09:16;5.80;99.90
17599;DHT22;8918;52.092;5.232;2024-01-07T12:11:42;5.40;99.90
17599;DHT22;8918;52.092;5.232;2024-01-07T12:14:08;5.30;99.90
17599;DHT22;8918;52.092;5.232;2024-01-07T12:16:36;5.50;99.90
17599;DHT22;8918;52.092;5.232;2024-01-07T12:19:01;5.70;99.90
17599;DHT22;8918;52.092;5.232;2024-01-07T12:21:27;5.70;99.90
17599;DHT22;8918;52.092;5.232;2024-01-07T12:23:55;5.90;99.90
17599;DHT22;8918;52.092;5.232;2024-01-07T12:26:25;5.90;99.90
17599;DHT22;8918;52.092;5.232;2024-01-07T12:28:56;5.80;99.90
17599;DHT22;8918;52.092;5.232;2024-01-07T12:31:26;5.70;99.90
17599;DHT22;8918;52.092;5.232;2024-01-07T12:33:52;5.90;99.90
17599;DHT22;8918;52.092;5.232;2024-01-07T12:36:21;5.80;99.90
17599;DHT22;8918;52.092;5.232;2024-01-07T12:38:48;5.70;99.90
17599;DHT22;8918;52.092;5.232;2024-01-07T12:41:13;5.70;99.90
17599;DHT22;8918;52.092;5.232;2024-01-07T12:43:39;5.50;99.90
17599;DHT22;8918;52.092;5.232;2024-01-07T12:46:05;5.20;99.90
17599;DHT22;8918;52.092;5.232;2024-01-07T12:48:31;4.80;99.90
17599;DHT22;8918;52.092;5.232;2024-01-07T12:50:57;4.60;99.90
17599;DHT22;8918;52.092;5.232;2024-01-07T12:53:23;4.70;99.90
17599;DHT22;8918;52.092;5.232;2024-01-07T12:55:49;5.00;99.90
17599;DHT22;8918;52.092;5.232;2024-01-07T12:58:14;5.20;99.90
17599;DHT22;8918;52.092;5.232;2024-01-07T13:00:42;5.50;99.90
17599;DHT22;8918;52.092;5.232;2024-01-07T13:03:08;5.50;99.90
17599;DHT22;8918;52.092;5.232;2024-01-07T13:05:39;5.70;99.90
17599;DHT22;8918;52.092;5.232;2024-01-07T13:08:04;6.20;99.90
17599;DHT22;8918;52.092;5.232;2024-01-07T13:10:30;6.30;99.90
17599;DHT22;8918;52.092;5.232;2024-01-07T13:12:56;6.20;99.90
17599;DHT22;8918;52.092;5.232;2024-01-07T13:15:21;6.50;99.90
17599;DHT22;8918;52.092;5.232;2024-01-07T13:17:48;6.50;99.90
17599;DHT22;8918;52.092;5.232;2024-01-07T13:20:13;6.00;99.90
17599;DHT22;8918;52.092;5.232;2024-01-07T13:22:40;6.00;99.90
17599;DHT22;8918;52.092;5.232;2024-01-07T13:25:06;5.90;99.90
17599;DHT22;8918;52.092;5.232;2024-01-07T13:27:32;5.80;99.90
17599;DHT22;8918;52.092;5.232;2024-01-07T13:29:58;5.60;99.90
17599;DHT22;8918;52.092;5.232;2024-01-07T13:32:24;5.60;99.90
17599;DHT22;8918;52.092;5.232;2024-01-07T13:34:50;5.70;99.90
17599;DHT22;8918;52.092;5.232;2024-01-07T13:37:15;5.80;99.90
17599;DHT22;8918;52.092;5.232;2024-01-07T13:39:41;5.90;99.90
17599;DHT22;8918;52.092;5.232;2024-01-07T13:42:07;5.80;99.90
17599;DHT22;8918;52.092;5.232;2024-01-07T13:44:32;5.60;99.90
17599;DHT22;8918;52.092;5.232;2024-01-07T13:47:00;5.10;99.90
17599;DHT22;8918;52.092;5.232;2024-01-07T13:49:27;4.70;99.90
17599;DHT22;8918;52.092;5.232;2024-01-07T13:51:53;4.30;99.90
17599;DHT22;8918;52.092;5.232;2024-01-07T13:54:20;4.00;99.90
17599;DHT22;8918;52.092;5.232;2024-01-07T13:56:46;4.20;99.90
17599;DHT22;8918;52.092;5.232;2024-01-07T13:59:11;4.20;99.90
17599;DHT22;8918;52.092;5.232;2024-01-07T14:01:37;4.30;99.90
17599;DHT22;8918;52.092;5.232;2024-01-07T14:04:03;4.30;99.90
17599;DHT22;8918;52.092;5.232;2024-01-07T14:06:29;4.10;99.90
17599;DHT22;8918;52.092;5.232;2024-01-07T14:08:55;3.90;99.90
17599;DHT22;8918;52.092;5.232;2024-01-07T14:11:21;3.50;99.90
17599;DHT22;8918;52.092;5.232;2024-01-07T14:13:46;3.20;99.90
17599;DHT22;8918;52.092;5.232;2024-01-07T14:16:13;2.90;99.90
17599;DHT22;8918;52.092;5.232;2024-01-07T14:18:39;2.80;99.90
17599;DHT22;8918;52.092;5.232;2024-01-07T14:21:05;2.50;99.90
17599;DHT22;8918;52.092;5.232;2024-01-07T14:23:31;2.30;99.90
17599;DHT22;8918;52.092;5.232;2024-01-07T14:25:57;2.20;99.90
17599;DHT22;8918;52.092;5.232;2024-01-07T14:28:23;2.10;99.90
17599;DHT22;8918;52.092;5.232;2024-01-07T14:30:48;1.90;99.90
17599;DHT22;8918;52.092;5.232;2024-01-07T14:33:14;1.80;99.90
17599;DHT22;8918;52.092;5.232;2024-01-07T14:35:40;1.70;99.90
17599;DHT22;8918;52.092;5.232;2024-01-07T14:38:06;1.70;99.90
17599;DHT22;8918;52.092;5.232;2024-01-07T14:40:31;1.60;99.90
17599;DHT22;8918;52.092;5.232;2024-01-07T14:42:57;1.50;99.90
17599;DHT22;8918;52.092;5.232;2024-01-07T14:45:26;1.40;99.90
17599;DHT22;8918;52.092;5.232;2024-01-07T14:47:52;1.40;99.90
17599;DHT22;8918;52.092;5.232;2024-01-07T14:50:19;1.40;99.90
17599;DHT22;8918;52.092;5.232;2024-01-07T14:52:45;1.40;99.90
17599;DHT22;8918;52.092;5.232;2024-01-07T14:55:11;1.40;99.90
17599;DHT22;8918;52.092;5.232;2024-01-07T14:57:38;1.40;99.90
17599;DHT22;8918;52.092;5.232;2024-01-07T15:00:04;1.40;99.90
17599;DHT22;8918;52.092;5.232;2024-01-07T15:02:31;1.30;99.90
17599;DHT22;8918;52.092;5.232;2024-01-07T15:04:57;1.40;99.90
17599;DHT22;8918;52.092;5.232;2024-01-07T15:07:23;1.30;99.90
17599;DHT22;8918;52.092;5.232;2024-01-07T15:09:49;1.30;99.90
17599;DHT22;8918;52.092;5.232;2024-01-07T15:12:14;1.20;99.90
17599;DHT22;8918;52.092;5.232;2024-01-07T15:14:40;1.20;99.90
17599;DHT22;8918;52.092;5.232;2024-01-07T15:17:06;1.10;99.90
17599;DHT22;8918;52.092;5.232;2024-01-07T15:19:31;1.10;99.90
17599;DHT22;8918;52.092;5.232;2024-01-07T15:21:57;1.10;99.90
17599;DHT22;8918;52.092;5.232;2024-01-07T15:24:23;1.00;99.90
17599;DHT22;8918;52.092;5.232;2024-01-07T15:26:48;1.00;99.90
17599;DHT22;8918;52.092;5.232;2024-01-07T15:29:14;1.00;99.90
17599;DHT22;8918;52.092;5.232;2024-01-07T15:31:40;0.90;99.90
17599;DHT22;8918;52.092;5.232;2024-01-07T15:34:06;0.90;99.90
17599;DHT22;8918;52.092;5.232;2024-01-07T15:36:34;0.90;99.90
17599;DHT22;8918;52.092;5.232;2024-01-07T15:39:00;0.90;99.90
17599;DHT22;8918;52.092;5.232;2024-01-07T15:41:27;0.80;99.90
17599;DHT22;8918;52.092;5.232;2024-01-07T15:43:53;0.80;99.90
17599;DHT22;8918;52.092;5.232;2024-01-07T15:46:18;0.80;99.90
17599;DHT22;8918;52.092;5.232;2024-01-07T15:48:44;0.70;99.90
17599;DHT22;8918;52.092;5.232;2024-01-07T15:51:09;0.70;99.90
17599;DHT22;8918;52.092;5.232;2024-01-07T15:53:35;0.70;99.90
17599;DHT22;8918;52.092;5.232;2024-01-07T15:56:02;0.70;99.90
17599;DHT22;8918;52.092;5.232;2024-01-07T15:58:29;0.70;99.90